Regal Star — ESCM — position and weather

sailwx.info

Track history (hours):
 
Tides and Currents Weather Stations Pressure Air Temp Water Temp Dewpoint Dewpoint Depression Visibility Wind Speed Wind Dir Waves Ship Positions

Regal Star

Last reported at 2018-Jun-22 19:51 UTC. Time now 2018-Jun-22 20:22 UTC.
Position N 59°45' E 019°40'.

Length 157 m; draft 6.2 m.

Type: Passenger vessel. MMSI: 276554000.

Date/timePositionNaut miles runAvg speedWind from/ knotsBaromVisibWave heightAir tempDewpointWater temp
2018-Jun-22 19:51N 59°45' E 019°40'815.6
2018-Jun-22 19:19N 59°46' E 019°24'515.6
2018-Jun-22 19:00N 59°44' E 019°15'511.0
2018-Jun-22 18:31N 59°43' E 019°04'0 0.0
2018-Jun-22 18:00N 59°43' E 019°04'0 0.0
2018-Jun-22 17:30N 59°43' E 019°04'0 0.0
2018-Jun-22 17:00N 59°43' E 019°04'0 0.0
2018-Jun-22 16:30N 59°43' E 019°04'0 0.0
2018-Jun-22 16:00N 59°43' E 019°04'0 0.0
2018-Jun-22 15:27N 59°43' E 019°04'0 0.0
2018-Jun-22 15:00N 59°43' E 019°04'0 0.0
2018-Jun-22 14:27N 59°43' E 019°04'0 0.0
2018-Jun-22 11:30N 59°43' E 019°04'0 0.0
2018-Jun-22 11:00N 59°43' E 019°04'0 0.0
2018-Jun-22 10:30N 59°43' E 019°04'0 0.0
2018-Jun-22 10:00N 59°43' E 019°04'0 0.0
2018-Jun-22 09:30N 59°43' E 019°04'0 0.0
2018-Jun-22 09:00N 59°43' E 019°04'0 0.0
2018-Jun-22 08:30N 59°43' E 019°04'0 0.0
2018-Jun-22 08:00N 59°43' E 019°04'0 0.0
2018-Jun-22 07:30N 59°43' E 019°04'0 0.0
2018-Jun-22 07:00N 59°43' E 019°04'0 0.0
2018-Jun-22 06:30N 59°43' E 019°04'0 0.0
2018-Jun-22 06:00N 59°43' E 019°04'0 0.0
2018-Jun-22 05:30N 59°43' E 019°04'0 0.0
2018-Jun-22 05:00N 59°43' E 019°04'0 0.0
2018-Jun-22 04:30N 59°43' E 019°04'3 5.4
2018-Jun-22 04:00N 59°44' E 019°09'714.8
2018-Jun-22 03:30N 59°46' E 019°23'713.2
2018-Jun-22 03:00N 59°47' E 019°36'4614.5
2018-Jun-21 23:52N 59°38' E 021°05'514.8
2018-Jun-21 23:30N 59°37' E 021°15'714.7
2018-Jun-21 23:00N 59°36' E 021°29'715.0
2018-Jun-21 22:30N 59°35' E 021°44'714.8
2018-Jun-21 22:00N 59°34' E 021°59'714.8
2018-Jun-21 21:30N 59°34' E 022°13'2514.7
2018-Jun-21 19:47N 59°29' E 023°03'614.7
2018-Jun-21 19:21N 59°28' E 023°15'515.0
2018-Jun-21 19:00N 59°27' E 023°25'42 2.3
2018-Jun-21 00:59N 59°27' E 022°02'715.2
2018-Jun-21 00:30N 59°29' E 021°48'715.3
2018-Jun-21 00:00N 59°32' E 021°34'815.5
2018-Jun-20 23:30N 59°34' E 021°19'815.4
2018-Jun-20 23:00N 59°36' E 021°05'4315.3
2018-Jun-20 20:09N 59°45' E 019°41'216.0
2018-Jun-20 20:00N 59°45' E 019°36'915.8
2018-Jun-20 19:27N 59°45' E 019°18'613.7
2018-Jun-20 19:01N 59°43' E 019°07'1 2.7
2018-Jun-20 18:28N 59°43' E 019°04'0 0.0
2018-Jun-20 17:55N 59°43' E 019°04'0 0.0
2018-Jun-20 17:28N 59°43' E 019°04'0 0.0
2018-Jun-20 16:55N 59°43' E 019°04'0 0.0
2018-Jun-20 16:28N 59°43' E 019°04'0 0.0
2018-Jun-20 15:58N 59°43' E 019°04'0 0.0
2018-Jun-20 15:28N 59°43' E 019°04'0 0.0
2018-Jun-20 14:58N 59°43' E 019°04'0 0.0
2018-Jun-20 14:28N 59°43' E 019°04'0 0.0
2018-Jun-20 09:43N 59°43' E 019°04'0 0.0
2018-Jun-20 09:10N 59°43' E 019°04'0 0.0
2018-Jun-20 08:07N 59°43' E 019°04'0 0.0
2018-Jun-20 07:49N 59°43' E 019°04'0 0.0
2018-Jun-20 07:28N 59°43' E 019°04'0 0.0
2018-Jun-20 06:46N 59°43' E 019°04'0 0.8
2018-Jun-20 06:30N 59°43' E 019°04'611.1
2018-Jun-20 06:00N 59°45' E 019°15'714.7
2018-Jun-20 05:30N 59°46' E 019°29'715.0
2018-Jun-20 05:00N 59°44' E 019°44'714.6
2018-Jun-20 04:30N 59°41' E 019°57'3514.2
2018-Jun-20 02:02N 59°30' E 021°03'014.2
2018-Jun-20 02:00N 59°30' E 021°04'714.0
2018-Jun-20 01:31N 59°29' E 021°17'714.0
2018-Jun-20 01:00N 59°27' E 021°31'714.1
2018-Jun-20 00:30N 59°26' E 021°44'814.1
2018-Jun-19 23:58N 59°24' E 021°58'3614.4
2018-Jun-19 21:27N 59°21' E 023°09'714.6
2018-Jun-19 20:59N 59°22' E 023°23'714.3
2018-Jun-19 20:29N 59°22' E 023°37'913.9
2018-Jun-19 19:50N 59°23' E 023°55'412.8
2018-Jun-19 19:30N 59°21' E 024°02'2 0.8
2018-Jun-19 17:28N 59°20' E 024°05'1612.7
2018-Jun-19 16:11N 59°23' E 023°34'516.3
2018-Jun-19 15:53N 59°23' E 023°24'716.1
2018-Jun-19 15:26N 59°23' E 023°10'916.0
2018-Jun-19 14:52N 59°23' E 022°52'2315.5
2018-Jun-19 13:23N 59°26' E 022°07'715.4
2018-Jun-19 12:58N 59°28' E 021°55'715.4
2018-Jun-19 12:30N 59°30' E 021°41'815.5
2018-Jun-19 12:00N 59°33' E 021°27'815.5
2018-Jun-19 11:30N 59°35' E 021°12'815.5
2018-Jun-19 11:01N 59°37' E 020°58'3615.3
2018-Jun-19 08:39N 59°44' E 019°48'316.1
2018-Jun-19 08:29N 59°45' E 019°42'816.3
2018-Jun-19 08:00N 59°46' E 019°27'815.4
2018-Jun-19 07:30N 59°44' E 019°12'4 8.0
2018-Jun-19 06:59N 59°43' E 019°04'0 0.0
2018-Jun-19 06:29N 59°43' E 019°04'0 0.0
2018-Jun-19 05:59N 59°43' E 019°04'0 0.3
2018-Jun-19 05:30N 59°43' E 019°04'4 7.3
2018-Jun-19 05:00N 59°44' E 019°11'713.5
2018-Jun-19 04:30N 59°46' E 019°24'612.7
2018-Jun-19 04:00N 59°45' E 019°37'714.4
2018-Jun-19 03:30N 59°43' E 019°50'3714.9
2018-Jun-19 01:03N 59°31' E 020°59'115.4
2018-Jun-19 01:00N 59°31' E 021°00'815.6
2018-Jun-19 00:30N 59°29' E 021°15'815.4
2018-Jun-19 00:00N 59°27' E 021°30'815.4
2018-Jun-18 23:30N 59°25' E 021°44'1715.5
2018-Jun-18 22:24N 59°22' E 022°17'39 5.8
2018-Jun-18 15:44N 59°27' E 023°32'416.2
2018-Jun-18 15:30N 59°28' E 023°26'816.4
2018-Jun-18 15:00N 59°30' E 023°10'816.3
2018-Jun-18 14:30N 59°33' E 022°55'1215.9
2018-Jun-18 13:44N 59°35' E 022°31'416.1
2018-Jun-18 13:30N 59°35' E 022°24'816.1
2018-Jun-18 13:00N 59°35' E 022°08'816.1
2018-Jun-18 12:30N 59°35' E 021°52'816.0
2018-Jun-18 12:00N 59°35' E 021°36'816.2
2018-Jun-18 11:30N 59°34' E 021°20'815.8
2018-Jun-18 11:00N 59°36' E 021°05'4415.6
2018-Jun-18 08:12N 59°45' E 019°40'316.1
2018-Jun-18 08:00N 59°45' E 019°34'815.9
2018-Jun-18 07:31N 59°45' E 019°19'714.2
2018-Jun-18 07:00N 59°43' E 019°05'0 0.9
2018-Jun-18 06:29N 59°43' E 019°04'0 0.0
2018-Jun-18 05:59N 59°43' E 019°04'0 0.0
2018-Jun-18 05:29N 59°43' E 019°04'1 1.4
2018-Jun-18 04:59N 59°43' E 019°05'713.5
2018-Jun-18 04:30N 59°45' E 019°18'714.7
2018-Jun-18 04:00N 59°45' E 019°32'715.1
2018-Jun-18 03:30N 59°43' E 019°47'4114.9
2018-Jun-18 00:44N 59°30' E 021°04'315.1
2018-Jun-18 00:30N 59°30' E 021°10'815.4
2018-Jun-18 00:00N 59°28' E 021°25'815.5
2018-Jun-17 23:30N 59°26' E 021°40'815.6
2018-Jun-17 23:00N 59°24' E 021°55'815.8
2018-Jun-17 22:30N 59°22' E 022°10'815.6
2018-Jun-17 22:00N 59°20' E 022°25'1815.7
2018-Jun-17 20:51N 59°21' E 023°00'615.9
2018-Jun-17 20:27N 59°21' E 023°13'715.8
2018-Jun-17 20:00N 59°22' E 023°26'816.0
2018-Jun-17 19:30N 59°22' E 023°42'816.1
2018-Jun-17 19:00N 59°22' E 023°58'4 8.4
2018-Jun-17 18:28N 59°20' E 024°05'0 0.0
2018-Jun-17 16:18N 59°20' E 024°05'2 7.6
2018-Jun-17 16:00N 59°21' E 024°01'714.4
2018-Jun-17 15:31N 59°23' E 023°48'815.3
2018-Jun-17 15:01N 59°23' E 023°33'815.6
2018-Jun-17 14:31N 59°23' E 023°18'815.6
2018-Jun-17 14:00N 59°23' E 023°02'815.6
2018-Jun-17 13:28N 59°23' E 022°46'1315.7
2018-Jun-17 12:37N 59°25' E 022°20'215.7
2018-Jun-17 12:31N 59°25' E 022°16'815.7
2018-Jun-17 12:00N 59°27' E 022°01'815.7
2018-Jun-17 11:31N 59°30' E 021°47'815.6
2018-Jun-17 11:01N 59°32' E 021°32'815.8
2018-Jun-17 10:30N 59°34' E 021°17'815.7
2018-Jun-17 10:00N 59°36' E 021°02'815.7
2018-Jun-17 09:30N 59°39' E 020°47'815.6
2018-Jun-17 09:00N 59°41' E 020°33'915.2
2018-Jun-17 08:24N 59°45' E 020°16'615.8
2018-Jun-17 08:00N 59°45' E 020°03'815.8
2018-Jun-17 07:30N 59°45' E 019°48'815.7
2018-Jun-17 07:00N 59°46' E 019°32'815.5
2018-Jun-17 06:30N 59°45' E 019°17'713.0
2018-Jun-17 06:00N 59°43' E 019°04'0 0.4
2018-Jun-17 05:28N 59°43' E 019°04'0 0.0
2018-Jun-17 04:58N 59°43' E 019°04'0 0.0
2018-Jun-17 04:30N 59°43' E 019°04'3 6.7
2018-Jun-17 04:00N 59°44' E 019°11'714.1
2018-Jun-17 03:30N 59°46' E 019°24'713.8
2018-Jun-17 03:01N 59°45' E 019°37'714.9
2018-Jun-17 02:31N 59°43' E 019°51'815.8
2018-Jun-17 02:01N 59°38' E 020°04'815.6
2018-Jun-17 01:31N 59°36' E 020°19'815.8
2018-Jun-17 01:01N 59°34' E 020°34'815.8
2018-Jun-17 00:31N 59°32' E 020°49'815.7
2018-Jun-17 00:00N 59°30' E 021°04'815.7
2018-Jun-16 23:30N 59°28' E 021°19'815.6
2018-Jun-16 23:01N 59°27' E 021°34'815.7
2018-Jun-16 22:31N 59°25' E 021°49'815.8
2018-Jun-16 22:01N 59°23' E 022°04'816.0
2018-Jun-16 21:30N 59°21' E 022°20'815.8
2018-Jun-16 20:59N 59°20' E 022°36'816.0
2018-Jun-16 20:31N 59°21' E 022°51'816.0
2018-Jun-16 20:00N 59°21' E 023°06'815.8
2018-Jun-16 19:30N 59°22' E 023°22'815.6
2018-Jun-16 19:00N 59°22' E 023°37'1015.2
2018-Jun-16 18:22N 59°23' E 023°56'5 1.5
2018-Jun-16 14:53N 59°20' E 024°05'0 0.0
2018-Jun-16 14:26N 59°20' E 024°05'1 0.1
2018-Jun-16 05:12N 59°20' E 024°03'313.4
2018-Jun-16 05:00N 59°22' E 023°60'713.6
2018-Jun-16 04:30N 59°23' E 023°47'714.0
2018-Jun-16 04:01N 59°23' E 023°33'714.1
2018-Jun-16 03:30N 59°23' E 023°19'814.2
2018-Jun-16 02:58N 59°23' E 023°04'714.3
2018-Jun-16 02:31N 59°23' E 022°51'3015.0
2018-Jun-16 00:29N 59°28' E 021°52'815.5
2018-Jun-16 00:00N 59°30' E 021°38'815.5
2018-Jun-15 23:31N 59°33' E 021°24'815.7
2018-Jun-15 23:01N 59°35' E 021°09'1115.6
2018-Jun-15 22:19N 59°38' E 020°49'515.4
2018-Jun-15 22:00N 59°40' E 020°40'915.5
2018-Jun-15 21:25N 59°44' E 020°24'715.8
2018-Jun-15 21:01N 59°45' E 020°11'815.9
2018-Jun-15 20:31N 59°45' E 019°55'815.9
2018-Jun-15 20:00N 59°45' E 019°39'816.0
2018-Jun-15 19:30N 59°46' E 019°23'714.9
2018-Jun-15 19:00N 59°44' E 019°10'3 5.7
2018-Jun-15 18:30N 59°43' E 019°04'0 0.0
2018-Jun-15 18:00N 59°43' E 019°04'0 0.0
2018-Jun-15 17:30N 59°43' E 019°04'0 0.0
2018-Jun-15 17:00N 59°43' E 019°04'0 0.0
2018-Jun-15 16:30N 59°43' E 019°04'0 0.0
2018-Jun-15 16:00N 59°43' E 019°04'0 0.0
2018-Jun-15 15:30N 59°43' E 019°04'0 0.0
2018-Jun-15 15:00N 59°43' E 019°04'0 0.0
2018-Jun-15 14:30N 59°43' E 019°04'0 0.0
2018-Jun-15 11:18N 59°43' E 019°04'0 0.0
2018-Jun-15 10:54N 59°43' E 019°04'0 0.0
2018-Jun-15 10:24N 59°43' E 019°04'0 0.0
2018-Jun-15 09:57N 59°43' E 019°04'0 0.0
2018-Jun-15 09:30N 59°43' E 019°04'0 0.0
2018-Jun-15 09:00N 59°43' E 019°04'0 0.0
2018-Jun-15 08:30N 59°43' E 019°04'0 0.0
2018-Jun-15 08:00N 59°43' E 019°04'0 0.0
2018-Jun-15 07:27N 59°43' E 019°04'0 0.0
2018-Jun-15 07:00N 59°43' E 019°04'0 0.0
2018-Jun-15 06:21N 59°43' E 019°04'0 0.0
2018-Jun-15 06:00N 59°43' E 019°04'0 0.0
2018-Jun-15 05:30N 59°43' E 019°04'0 0.0
2018-Jun-15 05:00N 59°43' E 019°04'0 0.0
2018-Jun-15 04:30N 59°43' E 019°04'3 6.3
2018-Jun-15 04:00N 59°44' E 019°10'713.1
2018-Jun-15 03:29N 59°46' E 019°23'713.6
2018-Jun-15 03:01N 59°45' E 019°36'815.2
2018-Jun-15 02:30N 59°43' E 019°50'815.5
2018-Jun-15 02:00N 59°38' E 020°03'3315.2
2018-Jun-14 23:52N 59°30' E 021°05'515.0
2018-Jun-14 23:30N 59°29' E 021°15'815.0
2018-Jun-14 23:00N 59°27' E 021°30'715.1
2018-Jun-14 22:31N 59°26' E 021°44'1515.4
2018-Jun-14 21:33N 59°22' E 022°13'315.6
2018-Jun-14 21:22N 59°21' E 022°18'1615.4
2018-Jun-14 20:19N 59°21' E 022°50'515.6
2018-Jun-14 20:01N 59°21' E 022°59'1115.7
2018-Jun-14 19:20N 59°22' E 023°20'17 1.2
2018-Jun-14 04:49N 59°23' E 023°54'514.7
2018-Jun-14 04:30N 59°23' E 023°45'814.6
2018-Jun-14 03:58N 59°23' E 023°30'914.6
2018-Jun-14 03:20N 59°23' E 023°11'814.7
2018-Jun-14 02:47N 59°23' E 022°56'414.7
2018-Jun-14 02:31N 59°23' E 022°48'1814.8
2018-Jun-14 01:17N 59°26' E 022°13'415.5
2018-Jun-14 01:00N 59°27' E 022°05'815.4
2018-Jun-14 00:31N 59°29' E 021°50'815.5
2018-Jun-14 00:01N 59°31' E 021°35'815.6
2018-Jun-13 23:31N 59°34' E 021°21'815.5
2018-Jun-13 23:01N 59°36' E 021°06'915.6
2018-Jun-13 22:27N 59°38' E 020°49'3615.3
2018-Jun-13 20:08N 59°45' E 019°40'215.8
2018-Jun-13 20:00N 59°45' E 019°36'815.7
2018-Jun-13 19:28N 59°45' E 019°20'714.2
2018-Jun-13 18:59N 59°43' E 019°07'1 0.6
2018-Jun-13 16:46N 59°43' E 019°04'0 0.0
2018-Jun-13 14:25N 59°43' E 019°04'0 0.0
2018-Jun-13 11:16N 59°43' E 019°04'0 0.0
2018-Jun-13 10:58N 59°43' E 019°04'0 0.0
2018-Jun-13 10:28N 59°43' E 019°04'0 0.0
2018-Jun-13 09:52N 59°43' E 019°04'0 0.0
2018-Jun-13 09:28N 59°43' E 019°04'0 0.0
2018-Jun-13 08:58N 59°43' E 019°04'0 0.0
2018-Jun-13 08:28N 59°43' E 019°04'0 0.0
2018-Jun-13 07:58N 59°43' E 019°04'0 0.0
2018-Jun-13 07:28N 59°43' E 019°04'0 0.0
2018-Jun-13 06:31N 59°43' E 019°04'0 0.0
2018-Jun-13 06:28N 59°43' E 019°04'0 0.3
2018-Jun-13 06:00N 59°43' E 019°04'5 9.5
2018-Jun-13 05:30N 59°44' E 019°13'713.5
2018-Jun-13 05:00N 59°46' E 019°26'713.6
2018-Jun-13 04:30N 59°44' E 019°40'714.2
2018-Jun-13 04:00N 59°42' E 019°53'815.4
2018-Jun-13 03:30N 59°38' E 020°05'815.3
2018-Jun-13 03:00N 59°36' E 020°20'2315.4
2018-Jun-13 01:31N 59°30' E 021°04'014.9
2018-Jun-13 01:30N 59°30' E 021°04'815.3
2018-Jun-13 01:00N 59°29' E 021°19'815.4
2018-Jun-13 00:30N 59°27' E 021°33'815.6
2018-Jun-13 00:00N 59°25' E 021°48'815.6
2018-Jun-12 23:30N 59°23' E 022°03'815.5
2018-Jun-12 23:00N 59°21' E 022°18'815.4
2018-Jun-12 22:30N 59°20' E 022°33'815.5
2018-Jun-12 22:00N 59°21' E 022°48'815.5
2018-Jun-12 21:30N 59°21' E 023°03'  
Track history (hours):
 
Tides and Currents Weather Stations Pressure Air Temp Water Temp Dewpoint Dewpoint Depression Visibility Wind Speed Wind Dir Waves Ship Positions

Regal Star

Last reported at 2018-Jun-22 19:51 UTC. Time now 2018-Jun-22 20:22 UTC.
Position N 59°45' E 019°40'.

Length 157 m; draft 6.2 m.

Type: Passenger vessel. MMSI: 276554000.

Date/timePositionNaut miles runAvg speedWind from/ knotsBaromVisibWave heightAir tempDewpointWater temp
2018-Jun-22 19:51N 59°45' E 019°40'815.6
2018-Jun-22 19:19N 59°46' E 019°24'515.6
2018-Jun-22 19:00N 59°44' E 019°15'511.0
2018-Jun-22 18:31N 59°43' E 019°04'0 0.0
2018-Jun-22 18:00N 59°43' E 019°04'0 0.0
2018-Jun-22 17:30N 59°43' E 019°04'0 0.0
2018-Jun-22 17:00N 59°43' E 019°04'0 0.0
2018-Jun-22 16:30N 59°43' E 019°04'0 0.0
2018-Jun-22 16:00N 59°43' E 019°04'0 0.0
2018-Jun-22 15:27N 59°43' E 019°04'0 0.0
2018-Jun-22 15:00N 59°43' E 019°04'0 0.0
2018-Jun-22 14:27N 59°43' E 019°04'0 0.0
2018-Jun-22 11:30N 59°43' E 019°04'0 0.0
2018-Jun-22 11:00N 59°43' E 019°04'0 0.0
2018-Jun-22 10:30N 59°43' E 019°04'0 0.0
2018-Jun-22 10:00N 59°43' E 019°04'0 0.0
2018-Jun-22 09:30N 59°43' E 019°04'0 0.0
2018-Jun-22 09:00N 59°43' E 019°04'0 0.0
2018-Jun-22 08:30N 59°43' E 019°04'0 0.0
2018-Jun-22 08:00N 59°43' E 019°04'0 0.0
2018-Jun-22 07:30N 59°43' E 019°04'0 0.0
2018-Jun-22 07:00N 59°43' E 019°04'0 0.0
2018-Jun-22 06:30N 59°43' E 019°04'0 0.0
2018-Jun-22 06:00N 59°43' E 019°04'0 0.0
2018-Jun-22 05:30N 59°43' E 019°04'0 0.0
2018-Jun-22 05:00N 59°43' E 019°04'0 0.0
2018-Jun-22 04:30N 59°43' E 019°04'3 5.4
2018-Jun-22 04:00N 59°44' E 019°09'714.8
2018-Jun-22 03:30N 59°46' E 019°23'713.2
2018-Jun-22 03:00N 59°47' E 019°36'4614.5
2018-Jun-21 23:52N 59°38' E 021°05'514.8
2018-Jun-21 23:30N 59°37' E 021°15'714.7
2018-Jun-21 23:00N 59°36' E 021°29'715.0
2018-Jun-21 22:30N 59°35' E 021°44'714.8
2018-Jun-21 22:00N 59°34' E 021°59'714.8
2018-Jun-21 21:30N 59°34' E 022°13'2514.7
2018-Jun-21 19:47N 59°29' E 023°03'614.7
2018-Jun-21 19:21N 59°28' E 023°15'515.0
2018-Jun-21 19:00N 59°27' E 023°25'42 2.3
2018-Jun-21 00:59N 59°27' E 022°02'715.2
2018-Jun-21 00:30N 59°29' E 021°48'715.3
2018-Jun-21 00:00N 59°32' E 021°34'815.5
2018-Jun-20 23:30N 59°34' E 021°19'815.4
2018-Jun-20 23:00N 59°36' E 021°05'4315.3
2018-Jun-20 20:09N 59°45' E 019°41'216.0
2018-Jun-20 20:00N 59°45' E 019°36'915.8
2018-Jun-20 19:27N 59°45' E 019°18'613.7
2018-Jun-20 19:01N 59°43' E 019°07'1 2.7
2018-Jun-20 18:28N 59°43' E 019°04'0 0.0
2018-Jun-20 17:55N 59°43' E 019°04'0 0.0
2018-Jun-20 17:28N 59°43' E 019°04'0 0.0
2018-Jun-20 16:55N 59°43' E 019°04'0 0.0
2018-Jun-20 16:28N 59°43' E 019°04'0 0.0
2018-Jun-20 15:58N 59°43' E 019°04'0 0.0
2018-Jun-20 15:28N 59°43' E 019°04'0 0.0
2018-Jun-20 14:58N 59°43' E 019°04'0 0.0
2018-Jun-20 14:28N 59°43' E 019°04'0 0.0
2018-Jun-20 09:43N 59°43' E 019°04'0 0.0
2018-Jun-20 09:10N 59°43' E 019°04'0 0.0
2018-Jun-20 08:07N 59°43' E 019°04'0 0.0
2018-Jun-20 07:49N 59°43' E 019°04'0 0.0
2018-Jun-20 07:28N 59°43' E 019°04'0 0.0
2018-Jun-20 06:46N 59°43' E 019°04'0 0.8
2018-Jun-20 06:30N 59°43' E 019°04'611.1
2018-Jun-20 06:00N 59°45' E 019°15'714.7
2018-Jun-20 05:30N 59°46' E 019°29'715.0
2018-Jun-20 05:00N 59°44' E 019°44'714.6
2018-Jun-20 04:30N 59°41' E 019°57'3514.2
2018-Jun-20 02:02N 59°30' E 021°03'014.2
2018-Jun-20 02:00N 59°30' E 021°04'714.0
2018-Jun-20 01:31N 59°29' E 021°17'714.0
2018-Jun-20 01:00N 59°27' E 021°31'714.1
2018-Jun-20 00:30N 59°26' E 021°44'814.1
2018-Jun-19 23:58N 59°24' E 021°58'3614.4
2018-Jun-19 21:27N 59°21' E 023°09'714.6
2018-Jun-19 20:59N 59°22' E 023°23'714.3
2018-Jun-19 20:29N 59°22' E 023°37'913.9
2018-Jun-19 19:50N 59°23' E 023°55'412.8
2018-Jun-19 19:30N 59°21' E 024°02'2 0.8
2018-Jun-19 17:28N 59°20' E 024°05'1612.7
2018-Jun-19 16:11N 59°23' E 023°34'516.3
2018-Jun-19 15:53N 59°23' E 023°24'716.1
2018-Jun-19 15:26N 59°23' E 023°10'916.0
2018-Jun-19 14:52N 59°23' E 022°52'2315.5
2018-Jun-19 13:23N 59°26' E 022°07'715.4
2018-Jun-19 12:58N 59°28' E 021°55'715.4
2018-Jun-19 12:30N 59°30' E 021°41'815.5
2018-Jun-19 12:00N 59°33' E 021°27'815.5
2018-Jun-19 11:30N 59°35' E 021°12'815.5
2018-Jun-19 11:01N 59°37' E 020°58'3615.3
2018-Jun-19 08:39N 59°44' E 019°48'316.1
2018-Jun-19 08:29N 59°45' E 019°42'816.3
2018-Jun-19 08:00N 59°46' E 019°27'815.4
2018-Jun-19 07:30N 59°44' E 019°12'4 8.0
2018-Jun-19 06:59N 59°43' E 019°04'0 0.0
2018-Jun-19 06:29N 59°43' E 019°04'0 0.0
2018-Jun-19 05:59N 59°43' E 019°04'0 0.3
2018-Jun-19 05:30N 59°43' E 019°04'4 7.3
2018-Jun-19 05:00N 59°44' E 019°11'713.5
2018-Jun-19 04:30N 59°46' E 019°24'612.7
2018-Jun-19 04:00N 59°45' E 019°37'714.4
2018-Jun-19 03:30N 59°43' E 019°50'3714.9
2018-Jun-19 01:03N 59°31' E 020°59'115.4
2018-Jun-19 01:00N 59°31' E 021°00'815.6
2018-Jun-19 00:30N 59°29' E 021°15'815.4
2018-Jun-19 00:00N 59°27' E 021°30'815.4
2018-Jun-18 23:30N 59°25' E 021°44'1715.5
2018-Jun-18 22:24N 59°22' E 022°17'39 5.8
2018-Jun-18 15:44N 59°27' E 023°32'416.2
2018-Jun-18 15:30N 59°28' E 023°26'816.4
2018-Jun-18 15:00N 59°30' E 023°10'816.3
2018-Jun-18 14:30N 59°33' E 022°55'1215.9
2018-Jun-18 13:44N 59°35' E 022°31'416.1
2018-Jun-18 13:30N 59°35' E 022°24'816.1
2018-Jun-18 13:00N 59°35' E 022°08'816.1
2018-Jun-18 12:30N 59°35' E 021°52'816.0
2018-Jun-18 12:00N 59°35' E 021°36'816.2
2018-Jun-18 11:30N 59°34' E 021°20'815.8
2018-Jun-18 11:00N 59°36' E 021°05'4415.6
2018-Jun-18 08:12N 59°45' E 019°40'316.1
2018-Jun-18 08:00N 59°45' E 019°34'815.9
2018-Jun-18 07:31N 59°45' E 019°19'714.2
2018-Jun-18 07:00N 59°43' E 019°05'0 0.9
2018-Jun-18 06:29N 59°43' E 019°04'0 0.0
2018-Jun-18 05:59N 59°43' E 019°04'0 0.0
2018-Jun-18 05:29N 59°43' E 019°04'1 1.4
2018-Jun-18 04:59N 59°43' E 019°05'713.5
2018-Jun-18 04:30N 59°45' E 019°18'714.7
2018-Jun-18 04:00N 59°45' E 019°32'715.1
2018-Jun-18 03:30N 59°43' E 019°47'4114.9
2018-Jun-18 00:44N 59°30' E 021°04'315.1
2018-Jun-18 00:30N 59°30' E 021°10'815.4
2018-Jun-18 00:00N 59°28' E 021°25'815.5
2018-Jun-17 23:30N 59°26' E 021°40'815.6
2018-Jun-17 23:00N 59°24' E 021°55'815.8
2018-Jun-17 22:30N 59°22' E 022°10'815.6
2018-Jun-17 22:00N 59°20' E 022°25'1815.7
2018-Jun-17 20:51N 59°21' E 023°00'615.9
2018-Jun-17 20:27N 59°21' E 023°13'715.8
2018-Jun-17 20:00N 59°22' E 023°26'816.0
2018-Jun-17 19:30N 59°22' E 023°42'816.1
2018-Jun-17 19:00N 59°22' E 023°58'4 8.4
2018-Jun-17 18:28N 59°20' E 024°05'0 0.0
2018-Jun-17 16:18N 59°20' E 024°05'2 7.6
2018-Jun-17 16:00N 59°21' E 024°01'714.4
2018-Jun-17 15:31N 59°23' E 023°48'815.3
2018-Jun-17 15:01N 59°23' E 023°33'815.6
2018-Jun-17 14:31N 59°23' E 023°18'815.6
2018-Jun-17 14:00N 59°23' E 023°02'815.6
2018-Jun-17 13:28N 59°23' E 022°46'1315.7
2018-Jun-17 12:37N 59°25' E 022°20'215.7
2018-Jun-17 12:31N 59°25' E 022°16'815.7
2018-Jun-17 12:00N 59°27' E 022°01'815.7
2018-Jun-17 11:31N 59°30' E 021°47'815.6
2018-Jun-17 11:01N 59°32' E 021°32'815.8
2018-Jun-17 10:30N 59°34' E 021°17'815.7
2018-Jun-17 10:00N 59°36' E 021°02'815.7
2018-Jun-17 09:30N 59°39' E 020°47'815.6
2018-Jun-17 09:00N 59°41' E 020°33'915.2
2018-Jun-17 08:24N 59°45' E 020°16'615.8
2018-Jun-17 08:00N 59°45' E 020°03'815.8
2018-Jun-17 07:30N 59°45' E 019°48'815.7
2018-Jun-17 07:00N 59°46' E 019°32'815.5
2018-Jun-17 06:30N 59°45' E 019°17'713.0
2018-Jun-17 06:00N 59°43' E 019°04'0 0.4
2018-Jun-17 05:28N 59°43' E 019°04'0 0.0
2018-Jun-17 04:58N 59°43' E 019°04'0 0.0
2018-Jun-17 04:30N 59°43' E 019°04'3 6.7
2018-Jun-17 04:00N 59°44' E 019°11'714.1
2018-Jun-17 03:30N 59°46' E 019°24'713.8
2018-Jun-17 03:01N 59°45' E 019°37'714.9
2018-Jun-17 02:31N 59°43' E 019°51'815.8
2018-Jun-17 02:01N 59°38' E 020°04'815.6
2018-Jun-17 01:31N 59°36' E 020°19'815.8
2018-Jun-17 01:01N 59°34' E 020°34'815.8
2018-Jun-17 00:31N 59°32' E 020°49'815.7
2018-Jun-17 00:00N 59°30' E 021°04'815.7
2018-Jun-16 23:30N 59°28' E 021°19'815.6
2018-Jun-16 23:01N 59°27' E 021°34'815.7
2018-Jun-16 22:31N 59°25' E 021°49'815.8
2018-Jun-16 22:01N 59°23' E 022°04'816.0
2018-Jun-16 21:30N 59°21' E 022°20'815.8
2018-Jun-16 20:59N 59°20' E 022°36'816.0
2018-Jun-16 20:31N 59°21' E 022°51'816.0
2018-Jun-16 20:00N 59°21' E 023°06'815.8
2018-Jun-16 19:30N 59°22' E 023°22'815.6
2018-Jun-16 19:00N 59°22' E 023°37'1015.2
2018-Jun-16 18:22N 59°23' E 023°56'5 1.5
2018-Jun-16 14:53N 59°20' E 024°05'0 0.0
2018-Jun-16 14:26N 59°20' E 024°05'1 0.1
2018-Jun-16 05:12N 59°20' E 024°03'313.4
2018-Jun-16 05:00N 59°22' E 023°60'713.6
2018-Jun-16 04:30N 59°23' E 023°47'714.0
2018-Jun-16 04:01N 59°23' E 023°33'714.1
2018-Jun-16 03:30N 59°23' E 023°19'814.2
2018-Jun-16 02:58N 59°23' E 023°04'714.3
2018-Jun-16 02:31N 59°23' E 022°51'3015.0
2018-Jun-16 00:29N 59°28' E 021°52'815.5
2018-Jun-16 00:00N 59°30' E 021°38'815.5
2018-Jun-15 23:31N 59°33' E 021°24'815.7
2018-Jun-15 23:01N 59°35' E 021°09'1115.6
2018-Jun-15 22:19N 59°38' E 020°49'515.4
2018-Jun-15 22:00N 59°40' E 020°40'915.5
2018-Jun-15 21:25N 59°44' E 020°24'715.8
2018-Jun-15 21:01N 59°45' E 020°11'815.9
2018-Jun-15 20:31N 59°45' E 019°55'815.9
2018-Jun-15 20:00N 59°45' E 019°39'816.0
2018-Jun-15 19:30N 59°46' E 019°23'714.9
2018-Jun-15 19:00N 59°44' E 019°10'3 5.7
2018-Jun-15 18:30N 59°43' E 019°04'0 0.0
2018-Jun-15 18:00N 59°43' E 019°04'0 0.0
2018-Jun-15 17:30N 59°43' E 019°04'0 0.0
2018-Jun-15 17:00N 59°43' E 019°04'0 0.0
2018-Jun-15 16:30N 59°43' E 019°04'0 0.0
2018-Jun-15 16:00N 59°43' E 019°04'0 0.0
2018-Jun-15 15:30N 59°43' E 019°04'0 0.0
2018-Jun-15 15:00N 59°43' E 019°04'0 0.0
2018-Jun-15 14:30N 59°43' E 019°04'0 0.0
2018-Jun-15 11:18N 59°43' E 019°04'0 0.0
2018-Jun-15 10:54N 59°43' E 019°04'0 0.0
2018-Jun-15 10:24N 59°43' E 019°04'0 0.0
2018-Jun-15 09:57N 59°43' E 019°04'0 0.0
2018-Jun-15 09:30N 59°43' E 019°04'0 0.0
2018-Jun-15 09:00N 59°43' E 019°04'0 0.0
2018-Jun-15 08:30N 59°43' E 019°04'0 0.0
2018-Jun-15 08:00N 59°43' E 019°04'0 0.0
2018-Jun-15 07:27N 59°43' E 019°04'0 0.0
2018-Jun-15 07:00N 59°43' E 019°04'0 0.0
2018-Jun-15 06:21N 59°43' E 019°04'0 0.0
2018-Jun-15 06:00N 59°43' E 019°04'0 0.0
2018-Jun-15 05:30N 59°43' E 019°04'0 0.0
2018-Jun-15 05:00N 59°43' E 019°04'0 0.0
2018-Jun-15 04:30N 59°43' E 019°04'3 6.3
2018-Jun-15 04:00N 59°44' E 019°10'713.1
2018-Jun-15 03:29N 59°46' E 019°23'713.6
2018-Jun-15 03:01N 59°45' E 019°36'815.2
2018-Jun-15 02:30N 59°43' E 019°50'815.5
2018-Jun-15 02:00N 59°38' E 020°03'3315.2
2018-Jun-14 23:52N 59°30' E 021°05'515.0
2018-Jun-14 23:30N 59°29' E 021°15'815.0
2018-Jun-14 23:00N 59°27' E 021°30'715.1
2018-Jun-14 22:31N 59°26' E 021°44'1515.4
2018-Jun-14 21:33N 59°22' E 022°13'315.6
2018-Jun-14 21:22N 59°21' E 022°18'1615.4
2018-Jun-14 20:19N 59°21' E 022°50'515.6
2018-Jun-14 20:01N 59°21' E 022°59'1115.7
2018-Jun-14 19:20N 59°22' E 023°20'17 1.2
2018-Jun-14 04:49N 59°23' E 023°54'514.7
2018-Jun-14 04:30N 59°23' E 023°45'814.6
2018-Jun-14 03:58N 59°23' E 023°30'914.6
2018-Jun-14 03:20N 59°23' E 023°11'814.7
2018-Jun-14 02:47N 59°23' E 022°56'414.7
2018-Jun-14 02:31N 59°23' E 022°48'1814.8
2018-Jun-14 01:17N 59°26' E 022°13'415.5
2018-Jun-14 01:00N 59°27' E 022°05'815.4
2018-Jun-14 00:31N 59°29' E 021°50'815.5
2018-Jun-14 00:01N 59°31' E 021°35'815.6
2018-Jun-13 23:31N 59°34' E 021°21'815.5
2018-Jun-13 23:01N 59°36' E 021°06'915.6
2018-Jun-13 22:27N 59°38' E 020°49'3615.3
2018-Jun-13 20:08N 59°45' E 019°40'215.8
2018-Jun-13 20:00N 59°45' E 019°36'815.7
2018-Jun-13 19:28N 59°45' E 019°20'714.2
2018-Jun-13 18:59N 59°43' E 019°07'1 0.6
2018-Jun-13 16:46N 59°43' E 019°04'0 0.0
2018-Jun-13 14:25N 59°43' E 019°04'0 0.0
2018-Jun-13 11:16N 59°43' E 019°04'0 0.0
2018-Jun-13 10:58N 59°43' E 019°04'0 0.0
2018-Jun-13 10:28N 59°43' E 019°04'0 0.0
2018-Jun-13 09:52N 59°43' E 019°04'0 0.0
2018-Jun-13 09:28N 59°43' E 019°04'0 0.0
2018-Jun-13 08:58N 59°43' E 019°04'0 0.0
2018-Jun-13 08:28N 59°43' E 019°04'0 0.0
2018-Jun-13 07:58N 59°43' E 019°04'0 0.0
2018-Jun-13 07:28N 59°43' E 019°04'0 0.0
2018-Jun-13 06:31N 59°43' E 019°04'0 0.0
2018-Jun-13 06:28N 59°43' E 019°04'0 0.3
2018-Jun-13 06:00N 59°43' E 019°04'5 9.5
2018-Jun-13 05:30N 59°44' E 019°13'713.5
2018-Jun-13 05:00N 59°46' E 019°26'713.6
2018-Jun-13 04:30N 59°44' E 019°40'714.2
2018-Jun-13 04:00N 59°42' E 019°53'815.4
2018-Jun-13 03:30N 59°38' E 020°05'815.3
2018-Jun-13 03:00N 59°36' E 020°20'2315.4
2018-Jun-13 01:31N 59°30' E 021°04'014.9
2018-Jun-13 01:30N 59°30' E 021°04'815.3
2018-Jun-13 01:00N 59°29' E 021°19'815.4
2018-Jun-13 00:30N 59°27' E 021°33'815.6
2018-Jun-13 00:00N 59°25' E 021°48'815.6
2018-Jun-12 23:30N 59°23' E 022°03'815.5
2018-Jun-12 23:00N 59°21' E 022°18'815.4
2018-Jun-12 22:30N 59°20' E 022°33'815.5
2018-Jun-12 22:00N 59°21' E 022°48'815.5
2018-Jun-12 21:30N 59°21' E 023°03'  

Dump ship's entire track history